Time;durP1;ratioP1;P1;durP2;ratioP2;P2;SDS_P1;SDS_P2;PMS_P1;PMS_P2;Temp;Humidity;BMP_temperature;BMP_pressure;BME280_temperature;BME280_humidity;BME280_pressure;Samples;Min_cycle;Max_cycle;Signal;HPM_P1;HPM_P2
2022/05/18 00:01:04;;;;;;;8.05;3.00;;;16.00;99.90;;;;;;5008299;28;20050;-43
2022/05/18 00:03:35;;;;;;;7.55;3.53;;;16.00;99.90;;;;;;5009630;28;20049;-41
2022/05/18 00:06:03;;;;;;;9.75;3.65;;;16.00;99.90;;;;;;5011793;28;20092;-41
2022/05/18 00:08:36;;;;;;;6.65;3.58;;;16.00;99.90;;;;;;5012212;28;20041;-41
2022/05/18 00:11:09;;;;;;;10.77;3.67;;;15.90;99.90;;;;;;5011948;28;20434;-43
2022/05/18 00:13:35;;;;;;;6.32;3.83;;;15.90;99.90;;;;;;5010653;28;20178;-42
2022/05/18 00:16:01;;;;;;;9.02;4.43;;;16.00;99.90;;;;;;5011840;28;20050;-42
2022/05/18 00:18:27;;;;;;;7.63;4.68;;;15.80;99.90;;;;;;5011955;28;20064;-41
2022/05/18 00:20:52;;;;;;;6.82;4.07;;;16.00;99.90;;;;;;5010267;28;20046;-43
2022/05/18 00:23:18;;;;;;;10.65;4.07;;;15.70;99.90;;;;;;5011698;28;20066;-43
2022/05/18 00:25:44;;;;;;;5.90;3.85;;;15.60;99.90;;;;;;5012332;28;20042;-41
2022/05/18 00:28:09;;;;;;;6.63;4.03;;;15.50;99.90;;;;;;5011855;28;20537;-42
2022/05/18 00:30:38;;;;;;;7.40;3.80;;;15.50;99.90;;;;;;5011958;28;20521;-41
2022/05/18 00:33:06;;;;;;;7.20;3.92;;;15.40;99.90;;;;;;5011864;28;20449;-42
2022/05/18 00:35:34;;;;;;;6.28;4.45;;;15.30;99.90;;;;;;5011899;28;20046;-42
2022/05/18 00:38:01;;;;;;;7.80;4.38;;;15.30;99.90;;;;;;5011167;28;20046;-40
2022/05/18 00:40:27;;;;;;;7.63;4.20;;;15.20;99.90;;;;;;5011882;28;20064;-42
2022/05/18 00:42:53;;;;;;;6.40;4.38;;;15.10;99.90;;;;;;5011166;28;20038;-41
2022/05/18 00:45:19;;;;;;;8.05;4.18;;;15.00;99.90;;;;;;5011295;28;20145;-41
2022/05/18 00:47:44;;;;;;;11.07;4.88;;;15.10;99.90;;;;;;5011513;28;20056;-41
2022/05/18 00:50:23;;;;;;;7.25;4.88;;;15.00;99.90;;;;;;5011638;28;20046;-41
2022/05/18 00:53:07;;;;;;;10.82;4.97;;;14.90;99.90;;;;;;5011793;28;20412;-41
2022/05/18 00:55:37;;;;;;;7.72;4.63;;;15.90;99.90;;;;;;5011813;28;20077;-42
2022/05/18 00:58:15;;;;;;;9.18;4.75;;;14.90;99.90;;;;;;5011494;28;20429;-40
2022/05/18 01:00:42;;;;;;;8.55;5.05;;;14.80;99.90;;;;;;5012191;28;20049;-41
2022/05/18 01:03:16;;;;;;;9.15;4.93;;;14.80;99.90;;;;;;5011433;28;20083;-41
2022/05/18 01:05:46;;;;;;;8.90;5.18;;;14.70;99.90;;;;;;5011353;28;20041;-42
2022/05/18 01:08:19;;;;;;;12.32;5.63;;;14.70;99.90;;;;;;5011343;28;20074;-41
2022/05/18 01:10:44;;;;;;;6.65;4.60;;;15.00;99.90;;;;;;5011703;28;20037;-42
2022/05/18 01:13:12;;;;;;;7.10;5.93;;;14.70;99.90;;;;;;5011375;28;20049;-41
2022/05/18 01:15:38;;;;;;;8.05;4.85;;;15.30;99.90;;;;;;5010763;28;20502;-41
2022/05/18 01:18:03;;;;;;;13.85;5.43;;;15.00;99.90;;;;;;5011685;28;20049;-41
2022/05/18 01:20:34;;;;;;;8.13;4.85;;;14.60;99.90;;;;;;5011570;28;20484;-41
2022/05/18 01:23:12;;;;;;;7.82;5.28;;;14.70;99.90;;;;;;5011080;28;20374;-43
2022/05/18 01:25:53;;;;;;;7.75;5.55;;;14.50;99.90;;;;;;5011294;28;20121;-41
2022/05/18 01:28:20;;;;;;;8.93;5.10;;;14.60;99.90;;;;;;5010819;28;20528;-41
2022/05/18 01:30:47;;;;;;;6.80;5.43;;;14.50;99.90;;;;;;5009561;28;20045;-41
2022/05/18 01:33:16;;;;;;;8.93;5.28;;;14.50;99.90;;;;;;5010596;28;20536;-41
2022/05/18 01:35:44;;;;;;;9.20;5.30;;;14.80;99.90;;;;;;5010941;28;20042;-42
2022/05/18 01:38:13;;;;;;;10.75;5.85;;;14.40;99.90;;;;;;5009938;28;20462;-41
2022/05/18 01:40:50;;;;;;;12.50;5.57;;;14.60;99.90;;;;;;5010668;28;20045;-41
2022/05/18 01:43:22;;;;;;;14.25;5.32;;;14.50;99.90;;;;;;5010507;28;20121;-40
2022/05/18 01:45:50;;;;;;;7.15;4.93;;;14.50;99.90;;;;;;5010715;28;20053;-41
2022/05/18 01:48:19;;;;;;;11.20;5.50;;;14.50;99.90;;;;;;5010419;28;20038;-41
2022/05/18 01:50:44;;;;;;;9.10;5.30;;;16.00;99.90;;;;;;5010592;28;20112;-41
2022/05/18 01:53:10;;;;;;;8.02;5.18;;;14.60;99.90;;;;;;5010021;28;20553;-41
2022/05/18 01:55:36;;;;;;;8.10;5.20;;;14.70;99.90;;;;;;5010380;28;20045;-40
2022/05/18 01:58:02;;;;;;;7.60;4.90;;;14.70;99.90;;;;;;5010349;28;20052;-41
2022/05/18 02:00:29;;;;;;;10.80;5.32;;;14.60;99.90;;;;;;5010451;28;20046;-42
2022/05/18 02:02:56;;;;;;;8.02;4.82;;;14.60;99.90;;;;;;5010508;28;20053;-42
2022/05/18 02:05:22;;;;;;;13.60;5.22;;;14.60;99.90;;;;;;5008737;28;20117;-42
2022/05/18 02:07:48;;;;;;;9.07;5.25;;;14.50;99.90;;;;;;5010660;28;20050;-42
2022/05/18 02:10:13;;;;;;;8.77;5.35;;;14.60;99.90;;;;;;5010446;28;20049;-41
2022/05/18 02:12:39;;;;;;;6.38;4.68;;;14.50;99.90;;;;;;5009130;28;20050;-41
2022/05/18 02:15:06;;;;;;;10.82;5.40;;;14.50;99.90;;;;;;5010077;28;20080;-41
2022/05/18 02:17:33;;;;;;;10.18;5.95;;;14.40;99.90;;;;;;5009040;28;20042;-41
2022/05/18 02:19:59;;;;;;;8.57;5.45;;;14.30;99.90;;;;;;5009892;28;20088;-40
2022/05/18 02:22:25;;;;;;;9.88;5.20;;;14.30;99.90;;;;;;5009993;28;20056;-41
2022/05/18 02:24:51;;;;;;;7.13;5.72;;;14.20;99.90;;;;;;5010006;28;20038;-41
2022/05/18 02:27:17;;;;;;;10.18;5.15;;;14.10;99.90;;;;;;5008773;28;20045;-41
2022/05/18 02:29:43;;;;;;;7.07;4.55;;;14.70;99.90;;;;;;5009885;28;20049;-41
2022/05/18 02:32:09;;;;;;;9.32;5.00;;;14.30;99.90;;;;;;5009933;28;20073;-41
2022/05/18 02:34:35;;;;;;;11.07;4.97;;;14.10;99.90;;;;;;5009838;28;20085;-41
2022/05/18 02:37:02;;;;;;;9.35;4.70;;;14.20;99.90;;;;;;5007598;28;20053;-40
2022/05/18 02:39:27;;;;;;;9.25;5.40;;;14.30;99.90;;;;;;5008119;28;20486;-40
2022/05/18 02:41:53;;;;;;;6.45;4.68;;;14.30;99.90;;;;;;5009672;28;20052;-42
2022/05/18 02:44:19;;;;;;;8.98;5.00;;;14.30;99.90;;;;;;5009415;28;20781;-42
2022/05/18 02:46:45;;;;;;;9.27;5.30;;;14.40;99.90;;;;;;5009113;28;20104;-41
2022/05/18 02:49:11;;;;;;;7.45;5.05;;;14.40;99.90;;;;;;5009725;28;20429;-41
2022/05/18 02:51:41;;;;;;;8.02;4.65;;;14.40;99.90;;;;;;5009718;28;20037;-41
2022/05/18 02:56:05;;;;;;;10.90;4.97;;;14.80;99.90;;;;;;5009213;28;20038;-41
2022/05/18 02:56:54;;;;;;;8.27;5.60;;;14.40;99.90;;;;;;5009502;28;20134;-41
2022/05/18 02:59:21;;;;;;;8.40;4.70;;;14.40;99.90;;;;;;5009300;28;20045;-40
2022/05/18 03:01:47;;;;;;;7.18;4.90;;;14.30;99.90;;;;;;5009102;28;20486;-42
2022/05/18 03:04:14;;;;;;;6.45;4.65;;;14.30;99.90;;;;;;5007830;28;20057;-41
2022/05/18 03:06:40;;;;;;;8.88;4.85;;;14.50;99.90;;;;;;5009151;28;20084;-42
2022/05/18 03:09:06;;;;;;;8.27;5.00;;;14.30;99.90;;;;;;5009317;28;20081;-42
2022/05/18 03:11:33;;;;;;;8.68;5.70;;;14.40;99.90;;;;;;5009226;28;20107;-41
2022/05/18 03:13:58;;;;;;;7.85;4.78;;;14.30;99.90;;;;;;5009461;28;20046;-41
2022/05/18 03:16:25;;;;;;;10.90;5.47;;;14.30;99.90;;;;;;5009222;28;20121;-41
2022/05/18 03:18:51;;;;;;;8.05;5.13;;;14.40;99.90;;;;;;5009530;28;20053;-41
2022/05/18 03:24:02;;;;;;;12.07;5.10;;;14.30;99.90;;;;;;5009573;28;20050;-40
2022/05/18 03:26:27;;;;;;;8.27;5.57;;;14.30;99.90;;;;;;5009117;28;20061;-42
2022/05/18 03:28:55;;;;;;;8.63;5.32;;;14.40;99.90;;;;;;5009530;28;20137;-41
2022/05/18 03:31:21;;;;;;;6.38;4.18;;;14.30;99.90;;;;;;5009004;28;20038;-41
2022/05/18 03:33:47;;;;;;;9.80;6.40;;;14.30;99.90;;;;;;5009148;28;20050;-41
2022/05/18 03:36:15;;;;;;;9.73;5.47;;;14.40;99.90;;;;;;5009128;28;20046;-41
2022/05/18 03:38:42;;;;;;;7.95;5.18;;;14.40;99.90;;;;;;5010396;28;20037;-43
2022/05/18 03:41:08;;;;;;;12.38;4.97;;;14.30;99.90;;;;;;5012979;28;20543;-41
2022/05/18 03:43:34;;;;;;;11.13;5.75;;;14.20;99.90;;;;;;5013264;28;20042;-43
2022/05/18 03:46:00;;;;;;;9.00;5.32;;;14.20;99.90;;;;;;5012806;28;20064;-41
2022/05/18 03:48:26;;;;;;;9.00;6.03;;;14.40;99.90;;;;;;5012542;28;20083;-41
2022/05/18 03:50:54;;;;;;;8.68;5.57;;;14.40;99.90;;;;;;5011507;28;20107;-42
2022/05/18 03:53:19;;;;;;;11.27;5.65;;;14.30;99.90;;;;;;5012774;28;20088;-42
2022/05/18 03:55:45;;;;;;;8.68;5.72;;;14.30;99.90;;;;;;5013190;28;20096;-41
2022/05/18 03:58:13;;;;;;;11.45;5.85;;;14.30;99.90;;;;;;5012277;28;20042;-40
2022/05/18 04:00:40;;;;;;;7.05;5.82;;;14.30;99.90;;;;;;5012807;28;20081;-42
2022/05/18 04:03:06;;;;;;;9.93;6.03;;;14.90;99.90;;;;;;5012729;28;20049;-42
2022/05/18 04:05:33;;;;;;;13.52;6.32;;;14.30;99.90;;;;;;5012682;28;20033;-42
2022/05/18 04:08:00;;;;;;;8.35;5.90;;;14.30;99.90;;;;;;5012552;28;20046;-42
2022/05/18 04:10:26;;;;;;;9.07;6.15;;;14.60;99.90;;;;;;5012321;28;20133;-41
2022/05/18 04:12:51;;;;;;;9.98;6.57;;;15.30;99.90;;;;;;5012536;28;20052;-42
2022/05/18 04:15:18;;;;;;;11.63;5.97;;;15.40;99.90;;;;;;5012222;28;20038;-41
2022/05/18 04:17:45;;;;;;;8.65;5.60;;;15.90;99.90;;;;;;5012183;28;20033;-40
2022/05/18 04:20:15;;;;;;;8.52;6.32;;;16.50;99.90;;;;;;5012141;28;20044;-40
2022/05/18 04:22:41;;;;;;;8.50;5.20;;;16.80;99.90;;;;;;5012264;28;20042;-41
2022/05/18 04:25:08;;;;;;;12.75;6.00;;;17.00;99.90;;;;;;5012482;28;20042;-41
2022/05/18 04:27:33;;;;;;;7.25;4.95;;;16.70;99.90;;;;;;5012196;28;20759;-41
2022/05/18 04:29:59;;;;;;;7.15;4.82;;;16.40;99.90;;;;;;5012282;28;20129;-43
2022/05/18 04:32:25;;;;;;;8.45;5.15;;;16.40;99.90;;;;;;5012436;28;20077;-41
2022/05/18 04:34:51;;;;;;;8.77;5.43;;;16.10;99.90;;;;;;5012354;28;20552;-41
2022/05/18 04:37:17;;;;;;;8.98;5.43;;;16.20;99.90;;;;;;5011447;28;20135;-42
2022/05/18 04:39:44;;;;;;;11.30;6.35;;;15.90;99.90;;;;;;5011921;28;20045;-41
2022/05/18 04:42:10;;;;;;;10.13;6.07;;;15.90;99.90;;;;;;5012031;28;20057;-41
2022/05/18 04:44:36;;;;;;;11.38;6.15;;;15.80;99.90;;;;;;5012141;28;20060;-41
2022/05/18 04:47:02;;;;;;;9.25;5.53;;;15.80;99.90;;;;;;5011664;28;20077;-41
2022/05/18 04:49:28;;;;;;;8.80;6.15;;;15.80;99.90;;;;;;5011205;28;20050;-42
2022/05/18 04:51:54;;;;;;;10.63;6.47;;;15.80;99.90;;;;;;5011527;28;20040;-41
2022/05/18 04:54:20;;;;;;;12.90;6.55;;;15.90;99.90;;;;;;5011495;28;20133;-41
2022/05/18 04:56:46;;;;;;;12.02;6.25;;;15.90;99.90;;;;;;5011711;28;20080;-42
2022/05/18 04:59:12;;;;;;;10.07;5.57;;;16.00;99.90;;;;;;5012013;28;20049;-42
2022/05/18 05:01:39;;;;;;;10.85;6.18;;;16.00;99.90;;;;;;5011635;28;20046;-41
2022/05/18 05:04:09;;;;;;;10.27;6.50;;;16.10;99.90;;;;;;5012038;28;20486;-41
2022/05/18 05:06:39;;;;;;;8.60;6.00;;;16.50;99.90;;;;;;5011840;28;20056;-42
2022/05/18 05:09:05;;;;;;;8.15;6.05;;;16.40;99.90;;;;;;5011472;28;20477;-41
2022/05/18 05:11:31;;;;;;;10.10;5.70;;;16.50;99.90;;;;;;5011296;28;20057;-40
2022/05/18 05:13:56;;;;;;;8.45;5.82;;;16.70;99.90;;;;;;5011798;28;20061;-42
2022/05/18 05:16:22;;;;;;;8.77;5.95;;;16.90;99.90;;;;;;5011514;28;20045;-41
2022/05/18 05:18:48;;;;;;;14.73;5.65;;;17.30;99.90;;;;;;5011611;28;20046;-40
2022/05/18 05:21:13;;;;;;;7.38;5.38;;;17.80;99.90;;;;;;5011352;28;20547;-41
2022/05/18 05:23:39;;;;;;;7.75;6.40;;;18.20;99.90;;;;;;5011323;28;20038;-41
2022/05/18 05:26:05;;;;;;;8.77;5.65;;;19.50;99.90;;;;;;5011512;28;20045;-42
2022/05/18 05:28:31;;;;;;;11.35;5.40;;;21.20;99.90;;;;;;5009498;28;20837;-41
2022/05/18 05:31:08;;;;;;;8.80;5.72;;;22.60;99.90;;;;;;5010381;28;20125;-40
2022/05/18 05:33:35;;;;;;;9.05;5.65;;;23.70;97.10;;;;;;5011132;28;20041;-41
2022/05/18 05:36:01;;;;;;;5.32;4.10;;;25.10;99.90;;;;;;5011006;28;20481;-41
2022/05/18 05:38:27;;;;;;;7.32;4.43;;;24.80;89.50;;;;;;5009838;28;20065;-43
2022/05/18 05:40:54;;;;;;;7.97;4.72;;;24.80;89.60;;;;;;5011169;28;20050;-42
2022/05/18 05:43:19;;;;;;;6.57;4.97;;;24.60;89.10;;;;;;5010958;28;20393;-41
2022/05/18 05:45:55;;;;;;;9.98;5.30;;;24.00;90.10;;;;;;5010966;28;20132;-41
2022/05/18 05:48:21;;;;;;;6.78;5.30;;;24.00;92.40;;;;;;5010772;28;20544;-42
2022/05/18 05:50:46;;;;;;;7.25;4.72;;;23.70;92.80;;;;;;5010990;28;20049;-41
2022/05/18 05:53:12;;;;;;;9.73;6.28;;;24.10;95.30;;;;;;5011027;28;20056;-41
2022/05/18 05:55:38;;;;;;;9.32;4.43;;;24.90;90.70;;;;;;5010642;28;20048;-41
2022/05/18 05:58:03;;;;;;;7.22;4.85;;;26.70;87.10;;;;;;5010558;28;20045;-42
2022/05/18 06:00:29;;;;;;;9.18;5.55;;;27.70;80.10;;;;;;5010328;28;20073;-42
2022/05/18 06:02:55;;;;;;;7.80;5.30;;;28.70;74.70;;;;;;5010732;28;20045;-42
2022/05/18 06:05:20;;;;;;;6.82;4.93;;;29.80;71.50;;;;;;5010895;28;20549;-41
2022/05/18 06:07:46;;;;;;;9.77;4.88;;;30.40;68.80;;;;;;5009277;28;20034;-42
2022/05/18 06:10:12;;;;;;;5.72;4.63;;;31.00;66.10;;;;;;5011018;28;20045;-43
2022/05/18 06:12:38;;;;;;;10.18;4.53;;;31.10;64.50;;;;;;5010480;28;20132;-41
2022/05/18 06:15:06;;;;;;;6.88;3.80;;;30.20;64.20;;;;;;5010649;28;20137;-42
2022/05/18 06:17:32;;;;;;;7.95;5.25;;;28.80;66.40;;;;;;5010182;28;20053;-43
2022/05/18 06:19:58;;;;;;;6.63;4.75;;;27.70;68.80;;;;;;5010361;28;20100;-42
2022/05/18 06:22:25;;;;;;;7.68;4.85;;;26.90;70.60;;;;;;5009710;28;20038;-43
2022/05/18 06:24:52;;;;;;;7.70;5.10;;;26.50;72.90;;;;;;5008582;28;20053;-44
2022/05/18 06:27:22;;;;;;;5.38;3.90;;;26.40;74.60;;;;;;5010058;28;20037;-43
2022/05/18 06:29:50;;;;;;;9.27;4.35;;;27.80;73.10;;;;;;5009129;28;20145;-46
2022/05/18 06:32:16;;;;;;;7.50;4.55;;;29.60;69.20;;;;;;5010115;28;20052;-41
2022/05/18 06:34:44;;;;;;;6.88;5.25;;;31.10;66.00;;;;;;5009934;28;20038;-42
2022/05/18 06:37:13;;;;;;;12.00;5.20;;;32.60;62.90;;;;;;5010075;28;20401;-43
2022/05/18 06:39:39;;;;;;;7.93;5.07;;;33.30;59.80;;;;;;5009870;28;20440;-43
2022/05/18 06:42:05;;;;;;;8.77;5.30;;;33.70;57.60;;;;;;5010091;28;20129;-45
2022/05/18 06:44:31;;;;;;;8.85;4.45;;;34.40;56.90;;;;;;5009707;28;20050;-42
2022/05/18 06:47:00;;;;;;;7.97;4.55;;;35.10;55.50;;;;;;5009641;28;20104;-42
2022/05/18 06:49:27;;;;;;;9.07;4.63;;;35.60;54.40;;;;;;5009464;28;20041;-42
2022/05/18 06:51:56;;;;;;;8.93;4.72;;;36.20;53.70;;;;;;5009829;28;20037;-43
2022/05/18 06:54:22;;;;;;;8.23;4.78;;;36.80;55.80;;;;;;5005908;28;20092;-47
2022/05/18 06:56:47;;;;;;;6.57;4.68;;;37.40;51.90;;;;;;5002502;28;20050;-49
2022/05/18 06:59:14;;;;;;;5.88;4.13;;;37.80;50.00;;;;;;5006563;28;20041;-49
2022/05/18 07:01:41;;;;;;;7.18;3.95;;;38.30;49.20;;;;;;5007825;28;20033;-52
2022/05/18 07:04:07;;;;;;;6.20;4.25;;;38.50;49.20;;;;;;5007870;28;20041;-47
2022/05/18 07:06:36;;;;;;;6.00;4.22;;;38.80;48.30;;;;;;5007226;28;20065;-52
2022/05/18 07:09:04;;;;;;;7.13;4.47;;;39.10;46.70;;;;;;5006815;28;20121;-39
2022/05/18 07:11:30;;;;;;;6.93;4.15;;;39.40;46.70;;;;;;5007592;28;20052;-40
2022/05/18 07:13:58;;;;;;;5.03;4.30;;;39.60;46.60;;;;;;5009626;28;20332;-38
2022/05/18 07:16:29;;;;;;;6.68;3.75;;;39.90;46.00;;;;;;5011667;28;20120;-38
2022/05/18 07:18:55;;;;;;;4.55;3.45;;;40.20;46.10;;;;;;5011953;28;20049;-38
2022/05/18 07:21:22;;;;;;;7.50;3.85;;;40.30;45.00;;;;;;5011922;28;20128;-39
2022/05/18 07:23:48;;;;;;;5.55;3.83;;;40.70;44.90;;;;;;5011124;28;20073;-38
2022/05/18 07:26:15;;;;;;;9.32;3.63;;;40.60;44.40;;;;;;5011612;28;20553;-37
2022/05/18 07:28:42;;;;;;;7.07;3.55;;;41.10;44.20;;;;;;5011643;28;20056;-38
2022/05/18 07:31:08;;;;;;;8.38;3.50;;;41.40;44.10;;;;;;5011902;28;20041;-38
2022/05/18 07:33:34;;;;;;;5.03;3.13;;;41.70;43.30;;;;;;5011895;28;20042;-37
2022/05/18 07:36:00;;;;;;;6.15;3.47;;;41.80;42.80;;;;;;5009879;28;20056;-37
2022/05/18 07:38:29;;;;;;;9.20;4.25;;;42.20;42.60;;;;;;5011905;28;20041;-35
2022/05/18 07:40:55;;;;;;;7.80;3.65;;;42.60;41.80;;;;;;5011647;28;20053;-37
2022/05/18 07:43:21;;;;;;;6.20;3.78;;;42.90;45.70;;;;;;5011712;28;20038;-37
2022/05/18 07:45:49;;;;;;;6.47;3.50;;;43.00;41.10;;;;;;5011294;28;20104;-37
2022/05/18 07:48:15;;;;;;;8.43;3.90;;;42.80;40.60;;;;;;5011536;28;20085;-37
2022/05/18 07:50:41;;;;;;;6.72;3.05;;;42.50;40.90;;;;;;5011532;28;20072;-37
2022/05/18 07:53:07;;;;;;;5.20;3.50;;;42.70;41.70;;;;;;5011943;28;20456;-38
2022/05/18 07:55:33;;;;;;;5.35;2.88;;;42.80;41.10;;;;;;5010086;28;20432;-38
2022/05/18 07:58:02;;;;;;;6.65;3.42;;;42.70;41.60;;;;;;5011165;28;20045;-37
2022/05/18 08:00:28;;;;;;;6.95;3.38;;;42.90;42.30;;;;;;5011300;28;20041;-38
2022/05/18 08:02:53;;;;;;;5.90;3.35;;;43.00;40.90;;;;;;5011263;28;20050;-36
2022/05/18 08:05:19;;;;;;;8.48;2.90;;;43.50;39.90;;;;;;5010986;28;20041;-37
2022/05/18 08:07:47;;;;;;;4.95;2.75;;;43.80;39.80;;;;;;5009719;28;20037;-38
2022/05/18 08:15:45;;;;;;;6.55;3.20;;;44.80;38.50;;;;;;5011039;28;20055;-37
2022/05/18 08:18:11;;;;;;;6.60;2.42;;;45.00;38.90;;;;;;5010934;28;20049;-41
2022/05/18 08:20:40;;;;;;;5.07;2.30;;;45.10;38.60;;;;;;5011207;28;20050;-37
2022/05/18 08:23:07;;;;;;;5.95;2.97;;;45.30;38.20;;;;;;5011070;28;20045;-39
2022/05/18 08:25:33;;;;;;;5.45;2.20;;;44.90;37.30;;;;;;5010663;28;20145;-38
2022/05/18 08:27:59;;;;;;;7.80;2.30;;;45.20;37.70;;;;;;5010851;28;20046;-40
2022/05/18 08:30:25;;;;;;;4.43;2.20;;;45.30;38.00;;;;;;5010974;28;20444;-40
2022/05/18 08:32:51;;;;;;;7.20;2.40;;;45.10;36.90;;;;;;5010532;28;20049;-39
2022/05/18 08:35:19;;;;;;;5.07;2.05;;;45.10;37.50;;;;;;5010161;28;20046;-40
2022/05/18 08:37:47;;;;;;;4.72;1.90;;;45.40;37.10;;;;;;5009306;28;20054;-39
2022/05/18 08:40:31;;;;;;;4.45;1.33;;;45.40;37.10;;;;;;5010791;28;20080;-39
2022/05/18 08:43:02;;;;;;;5.20;1.90;;;45.40;37.30;;;;;;5010478;28;20053;-38
2022/05/18 08:45:46;;;;;;;4.43;1.73;;;45.30;36.90;;;;;;5010355;28;20125;-37
2022/05/18 08:48:33;;;;;;;6.70;1.88;;;45.40;36.20;;;;;;5010712;28;20080;-38
2022/05/18 08:51:11;;;;;;;6.03;1.73;;;45.50;35.50;;;;;;5008992;28;20050;-39
2022/05/18 08:53:55;;;;;;;4.70;1.35;;;45.70;34.60;;;;;;5010355;28;20092;-38
2022/05/18 08:56:26;;;;;;;4.68;1.35;;;45.90;35.40;;;;;;5011036;28;20053;-41
2022/05/18 08:58:54;;;;;;;5.15;1.92;;;46.20;35.70;;;;;;5010532;28;20045;-41
2022/05/18 09:01:41;;;;;;;3.90;1.50;;;46.30;34.70;;;;;;5010402;28;20049;-40
2022/05/18 09:04:15;;;;;;;6.65;1.75;;;46.80;35.90;;;;;;5008811;28;20046;-40
2022/05/18 09:07:01;;;;;;;5.68;2.22;;;47.20;36.00;;;;;;5008776;28;20085;-41
2022/05/18 09:12:26;;;;;;;5.40;2.15;;;47.80;34.30;;;;;;5009788;28;20056;-39
2022/05/18 09:14:52;;;;;;;5.93;1.75;;;47.70;35.00;;;;;;5009682;28;20046;-40
2022/05/18 09:17:43;;;;;;;4.97;1.30;;;47.90;34.80;;;;;;5010267;28;20069;-41
2022/05/18 09:20:19;;;;;;;5.72;1.42;;;48.30;34.50;;;;;;5010013;28;20046;-40
2022/05/18 09:22:48;;;;;;;5.50;1.80;;;48.50;34.80;;;;;;5009506;28;20073;-42
2022/05/18 09:25:20;;;;;;;10.45;2.47;;;48.60;34.70;;;;;;5010193;28;20037;-37
2022/05/18 09:28:08;;;;;;;4.65;1.75;;;48.60;34.40;;;;;;5009779;28;20046;-37
2022/05/18 09:30:52;;;;;;;5.25;2.03;;;48.70;34.20;;;;;;5010230;28;20045;-39
2022/05/18 09:33:49;;;;;;;6.40;1.85;;;48.60;34.60;;;;;;5010186;28;20128;-39
2022/05/18 09:36:50;;;;;;;5.25;1.83;;;48.80;35.10;;;;;;5008866;28;20073;-40
2022/05/18 09:39:19;;;;;;;6.82;1.75;;;48.80;35.30;;;;;;5009352;28;20746;-38
2022/05/18 09:42:21;;;;;;;5.50;1.70;;;48.50;34.10;;;;;;5009800;28;20045;-40
2022/05/18 09:45:09;;;;;;;5.18;1.58;;;48.40;34.40;;;;;;4996377;28;20049;-42
2022/05/18 09:47:45;;;;;;;4.63;1.40;;;48.30;34.50;;;;;;5010021;28;20125;-40
2022/05/18 09:50:12;;;;;;;4.97;1.40;;;48.10;34.90;;;;;;5009678;28;20042;-41
2022/05/18 09:52:40;;;;;;;8.43;2.58;;;47.60;34.60;;;;;;5008322;28;20038;-40
2022/05/18 09:55:09;;;;;;;5.47;2.00;;;47.60;34.40;;;;;;5009153;28;20042;-42
2022/05/18 09:57:39;;;;;;;;;;;47.40;34.40;;;;;;5010104;28;20046;-44
2022/05/18 10:00:16;;;;;;;6.18;2.17;;;47.40;36.30;;;;;;5009135;28;19980;-39
2022/05/18 10:08:28;;;;;;;5.20;2.10;;;47.10;35.50;;;;;;5008264;28;20060;-38
2022/05/18 10:11:01;;;;;;;5.95;1.25;;;47.10;34.60;;;;;;5008854;28;20053;-39
2022/05/18 10:13:31;;;;;;;4.13;1.73;;;46.90;35.00;;;;;;5009150;28;20057;-39
2022/05/18 10:16:19;;;;;;;5.82;1.38;;;46.80;34.00;;;;;;5009038;28;20045;-41
2022/05/18 10:18:50;;;;;;;6.60;2.00;;;46.80;35.60;;;;;;5007479;28;20423;-51
2022/05/18 10:21:16;;;;;;;4.57;2.00;;;46.40;34.40;;;;;;5010109;28;20038;-48
2022/05/18 10:23:45;;;;;;;4.82;1.80;;;46.20;35.50;;;;;;5009304;28;20539;-49
2022/05/18 10:26:42;;;;;;;4.90;1.63;;;46.00;35.80;;;;;;5009913;28;20077;-50
2022/05/18 10:29:21;;;;;;;4.97;1.40;;;45.80;35.40;;;;;;5009099;28;20115;-50
2022/05/18 10:32:29;;;;;;;4.40;1.20;;;45.70;36.00;;;;;;5009870;28;20103;-50
2022/05/18 10:34:56;;;;;;;4.95;1.90;;;45.70;36.10;;;;;;5009614;28;20496;-47
2022/05/18 10:37:29;;;;;;;4.03;1.58;;;45.60;35.10;;;;;;5009116;28;20046;-51
2022/05/18 10:40:10;;;;;;;3.85;1.67;;;44.80;34.40;;;;;;5009586;28;20037;-50
2022/05/18 10:42:48;;;;;;;4.63;1.92;;;44.40;36.60;;;;;;5008277;28;20073;-48
2022/05/18 10:45:26;;;;;;;4.13;2.80;;;44.00;36.20;;;;;;5009060;28;20496;-48
2022/05/18 10:47:55;;;;;;;3.72;2.25;;;42.80;37.20;;;;;;5008602;28;20167;-51
2022/05/18 10:50:39;;;;;;;6.75;2.08;;;41.30;37.80;;;;;;5009246;28;20504;-50
2022/05/18 10:53:13;;;;;;;3.97;1.65;;;40.00;40.10;;;;;;5009005;28;20081;-48
2022/05/18 10:55:58;;;;;;;5.13;1.35;;;39.00;46.10;;;;;;5009088;28;20494;-48
2022/05/18 10:58:34;;;;;;;4.65;1.20;;;38.10;41.50;;;;;;5009323;28;20363;-47
2022/05/18 11:01:08;;;;;;;3.53;1.30;;;37.20;41.60;;;;;;5009179;28;20041;-48
2022/05/18 11:03:51;;;;;;;5.13;2.35;;;36.60;75.70;;;;;;5009557;28;20052;-47
2022/05/18 11:06:35;;;;;;;5.65;1.80;;;36.30;56.90;;;;;;5009300;28;20055;-48
2022/05/18 11:09:06;;;;;;;8.88;2.25;;;35.60;44.20;;;;;;5009405;28;20041;-49
2022/05/18 11:11:45;;;;;;;6.45;2.58;;;34.90;44.70;;;;;;5009522;28;20112;-47
2022/05/18 11:14:43;;;;;;;3.33;1.85;;;34.60;45.30;;;;;;5009200;28;20054;-48
2022/05/18 11:17:20;;;;;;;6.97;2.53;;;34.20;46.80;;;;;;5008873;28;20049;-49
2022/05/18 11:20:18;;;;;;;6.53;2.60;;;34.00;47.60;;;;;;5009167;28;20103;-47
2022/05/18 11:23:00;;;;;;;6.57;2.65;;;33.90;48.20;;;;;;5009304;28;20046;-48
2022/05/18 11:25:39;;;;;;;7.60;2.80;;;33.80;48.60;;;;;;5008887;28;20045;-47
2022/05/18 11:28:25;;;;;;;5.50;2.58;;;33.60;48.80;;;;;;5008858;28;20034;-49
2022/05/18 11:31:20;;;;;;;6.78;2.65;;;33.40;49.40;;;;;;5009110;28;20128;-47
2022/05/18 11:33:58;;;;;;;9.15;3.08;;;33.00;48.90;;;;;;5008833;28;20056;-49
2022/05/18 11:36:58;;;;;;;5.85;2.67;;;32.70;50.80;;;;;;5009166;28;20080;-47
2022/05/18 11:39:51;;;;;;;4.78;2.40;;;32.40;50.30;;;;;;5009001;28;20042;-47
2022/05/18 11:42:29;;;;;;;10.10;3.60;;;32.40;50.50;;;;;;5008966;28;20060;-46
2022/05/18 11:45:07;;;;;;;9.73;3.60;;;32.20;51.40;;;;;;5008616;28;20052;-47
2022/05/18 11:48:07;;;;;;;6.57;3.70;;;32.10;52.40;;;;;;5008925;28;20057;-47
2022/05/18 11:50:52;;;;;;;5.93;2.85;;;31.90;51.00;;;;;;4976539;28;20061;-47
2022/05/18 11:53:34;;;;;;;10.10;3.97;;;31.80;53.10;;;;;;5008503;28;20049;-46
2022/05/18 11:56:19;;;;;;;6.80;3.03;;;31.60;53.20;;;;;;5008428;28;20117;-47
2022/05/18 11:59:08;;;;;;;6.70;2.90;;;31.40;51.20;;;;;;5008729;28;20038;-47
2022/05/18 12:01:56;;;;;;;10.40;2.92;;;31.10;52.50;;;;;;5012277;28;20041;-47
2022/05/18 12:04:34;;;;;;;4.78;2.88;;;31.20;53.90;;;;;;5011947;28;20120;-48
2022/05/18 12:07:30;;;;;;;6.32;2.78;;;31.40;54.40;;;;;;5011487;28;20493;-49
2022/05/18 12:10:07;;;;;;;9.52;2.15;;;31.90;54.20;;;;;;5005797;28;20164;-48
2022/05/18 12:12:50;;;;;;;6.68;2.85;;;32.10;51.90;;;;;;5012135;28;20081;-48
2022/05/18 12:15:26;;;;;;;5.97;3.03;;;31.90;52.50;;;;;;5012097;28;20113;-48
2022/05/18 12:18:01;;;;;;;6.50;2.67;;;31.80;55.20;;;;;;5012063;28;20444;-46
2022/05/18 12:20:50;;;;;;;5.15;1.77;;;31.90;52.00;;;;;;5012252;28;20092;-47
2022/05/18 12:23:20;;;;;;;4.97;2.38;;;32.10;51.50;;;;;;5011762;28;20045;-47
2022/05/18 12:25:46;;;;;;;4.65;1.80;;;32.20;50.60;;;;;;5011789;28;20042;-48
2022/05/18 12:28:13;;;;;;;4.35;1.73;;;32.20;50.50;;;;;;5011597;28;20356;-46
2022/05/18 12:30:41;;;;;;;4.35;1.45;;;32.20;51.20;;;;;;5011711;28;20054;-47
2022/05/18 12:33:09;;;;;;;5.25;1.88;;;32.10;51.70;;;;;;5010110;28;20058;-50
2022/05/18 12:35:35;;;;;;;3.83;1.38;;;31.90;51.20;;;;;;5011863;28;20504;-48
2022/05/18 12:38:25;;;;;;;3.53;1.17;;;31.70;51.00;;;;;;5011390;28;20037;-46
2022/05/18 12:41:11;;;;;;;5.30;1.05;;;31.50;51.10;;;;;;5011945;28;20042;-46
2022/05/18 12:43:38;;;;;;;4.43;1.58;;;31.20;50.60;;;;;;5011723;28;20046;-48
2022/05/18 12:46:16;;;;;;;4.38;2.70;;;30.90;50.80;;;;;;5011260;28;20053;-47
2022/05/18 12:49:00;;;;;;;8.18;2.40;;;30.80;51.30;;;;;;5011451;28;20057;-47
2022/05/18 12:51:32;;;;;;;5.28;2.40;;;30.80;51.70;;;;;;5011404;28;20046;-49
2022/05/18 12:54:09;;;;;;;12.82;5.38;;;30.90;51.90;;;;;;5011416;28;20116;-47
2022/05/18 12:56:34;;;;;;;7.55;4.05;;;30.90;53.30;;;;;;5011124;28;20048;-48
2022/05/18 12:59:11;;;;;;;7.93;4.25;;;30.70;53.80;;;;;;5011766;28;20041;-47
2022/05/18 13:01:42;;;;;;;7.22;3.90;;;30.40;54.10;;;;;;5011761;28;20073;-46
2022/05/18 13:04:08;;;;;;;9.65;3.10;;;29.90;55.20;;;;;;5011495;28;20436;-50
2022/05/18 13:06:42;;;;;;;7.65;1.70;;;29.80;55.60;;;;;;5011508;28;20046;-47
2022/05/18 13:09:26;;;;;;;3.35;1.63;;;29.50;55.90;;;;;;5011056;28;20042;-48
2022/05/18 13:12:04;;;;;;;4.65;1.50;;;29.30;56.80;;;;;;5010304;28;20437;-46
2022/05/18 13:15:03;;;;;;;6.50;1.42;;;29.20;58.00;;;;;;5011450;28;20104;-47
2022/05/18 13:17:50;;;;;;;8.10;4.05;;;29.20;58.10;;;;;;5011273;28;20117;-47
2022/05/18 13:20:22;;;;;;;9.88;4.55;;;29.20;58.60;;;;;;5011050;28;20044;-47
2022/05/18 13:23:23;;;;;;;8.65;4.80;;;29.10;58.90;;;;;;5010945;28;20262;-48